Flugplatz UL-Flugplatz Büllingen (Belgien) (EBBN)

Hier findest Du alle Informationen zum Flugplatz UL-Flugplatz Büllingen (Belgien) (EBBN).

Informationen für Piloten zum Flugplatz UL-Flugplatz Büllingen (Belgien)

Hier findest Du alle relevanten Informationen, die Du als Pilot benötigst, um UL-Flugplatz Büllingen (Belgien) anzufliegen.

Flugplatz: UL-Flugplatz Büllingen (Belgien) ICAO-Code: EBBN
Frequenz Turm: 123.400 Mhz GAFOR Gebiet: 37
Frequenz Ground: 123.400 Mhz Mogas: nein
Platzrunde: N 3000 ft Landegebühr: 0 €
Platzhöhe: Sunrise: 06:35 Uhr UTC
Pisten: 12/30 - 300 m x 30 m, GRAS Sunset: 17:01 Uhr UTC

Mitglieder, die in UL-Flugplatz Büllingen (Belgien) fliegen

Flugwetter am Flugplatz UL-Flugplatz Büllingen (Belgien)

Die METAR Information stammen aus EDDK (79.10 km entfernt).

METAR Code:
2019/02/18 08:50
EDDK 180850Z 13005KT 080V160 CAVOK 08/M00 Q1019 NOSIG

Flugschulen am Flugplatz UL-Flugplatz Büllingen (Belgien)

Am Flugplatz UL-Flugplatz Büllingen (Belgien) gibt es eine Flugschule.

Benachbarte Flugplätze und Flugschulen

Es gibt 6 weitere Flugplätze in einem Umkreis von 50 km um den Flugplatz UL-Flugplatz Büllingen (Belgien).

Jetzt anmelden

Passwort vergessen

Umfrage Archiv

Welche Art von Theorieunterricht würde Dir am ehesten zusagen?

Frontalunterricht
64.1 %
Selbststudium
35.9 %
Stimmen: 315 | Diskussion
Anzeige: Roland Aircraft
Statistik Alle Mitglieder

Aktuell sind 33 Besucher online.

Anzeige: VFR Sprechfunk Simulator


Anzeige: Pocket FMS